Alev Kaman — TCCN5 — position and weather

sailwx.info

Track history (hours):
 
Tides and Currents Weather Stations Pressure Air Temp Water Temp Dewpoint Dewpoint Depression Visibility Wind Speed Wind Dir Waves Ship Positions

Alev Kaman

Last reported at 2015-Mar-27 13:07 UTC. Time now 2015-Mar-28 23:52 UTC.
Position N 41°16' E 029°39'.

Length 93 m; draft 6.3 m.

Type: Tanker. MMSI: 271000716.

Date/timePositionNaut miles runAvg speedWind from/ knotsBaromVisibWave heightAir tempDewpointWater temp
2015-Mar-27 13:07N 41°16' E 029°39'5 9.5
2015-Mar-27 12:33N 41°16' E 029°32'10 9.9
2015-Mar-27 11:33N 41°16' E 029°19'23 7.5
2015-Mar-27 08:32N 40°59' E 028°60'5 5.5
2015-Mar-27 07:33N 40°57' E 028°53'1 1.0
2015-Mar-27 06:28N 40°57' E 028°52'0 0.0
2015-Mar-26 16:29N 40°57' E 028°52'0 0.0
2015-Mar-26 14:26N 40°57' E 028°52'2 2.2
2015-Mar-26 13:33N 40°56' E 028°54'9 8.6
2015-Mar-26 12:29N 40°50' E 029°04'9 9.2
2015-Mar-26 11:31N 40°46' E 029°14'8 8.8
2015-Mar-26 10:33N 40°45' E 029°25'9 9.3
2015-Mar-26 09:33N 40°45' E 029°37'  
2015-Mar-22 18:09N 40°46' E 029°39'0 0.0
2015-Mar-22 16:14N 40°46' E 029°39'  
2015-Mar-17 17:31N 40°45' E 029°31'7 7.6
2015-Mar-17 16:32N 40°44' E 029°21'7 7.5
2015-Mar-17 15:33N 40°43' E 029°11'7 7.5
2015-Mar-17 14:34N 40°43' E 029°01'8 7.5
2015-Mar-17 13:33N 40°43' E 028°51'  
Track history (hours):
 
Tides and Currents Weather Stations Pressure Air Temp Water Temp Dewpoint Dewpoint Depression Visibility Wind Speed Wind Dir Waves Ship Positions

Alev Kaman

Last reported at 2015-Mar-27 13:07 UTC. Time now 2015-Mar-28 23:52 UTC.
Position N 41°16' E 029°39'.

Length 93 m; draft 6.3 m.

Type: Tanker. MMSI: 271000716.

Date/timePositionNaut miles runAvg speedWind from/ knotsBaromVisibWave heightAir tempDewpointWater temp
2015-Mar-27 13:07N 41°16' E 029°39'5 9.5
2015-Mar-27 12:33N 41°16' E 029°32'10 9.9
2015-Mar-27 11:33N 41°16' E 029°19'23 7.5
2015-Mar-27 08:32N 40°59' E 028°60'5 5.5
2015-Mar-27 07:33N 40°57' E 028°53'1 1.0
2015-Mar-27 06:28N 40°57' E 028°52'0 0.0
2015-Mar-26 16:29N 40°57' E 028°52'0 0.0
2015-Mar-26 14:26N 40°57' E 028°52'2 2.2
2015-Mar-26 13:33N 40°56' E 028°54'9 8.6
2015-Mar-26 12:29N 40°50' E 029°04'9 9.2
2015-Mar-26 11:31N 40°46' E 029°14'8 8.8
2015-Mar-26 10:33N 40°45' E 029°25'9 9.3
2015-Mar-26 09:33N 40°45' E 029°37'  
2015-Mar-22 18:09N 40°46' E 029°39'0 0.0
2015-Mar-22 16:14N 40°46' E 029°39'  
2015-Mar-17 17:31N 40°45' E 029°31'7 7.6
2015-Mar-17 16:32N 40°44' E 029°21'7 7.5
2015-Mar-17 15:33N 40°43' E 029°11'7 7.5
2015-Mar-17 14:34N 40°43' E 029°01'8 7.5
2015-Mar-17 13:33N 40°43' E 028°51'  

Dump ship's entire track history